createdAt,value
2019-03-11T00:00:54.390Z,1.67
2019-03-11T00:03:21.854Z,1.70
2019-03-11T00:05:49.448Z,2.10
2019-03-11T00:08:17.108Z,2.70
2019-03-11T00:10:44.673Z,4.13
2019-03-11T00:13:12.127Z,4.80
2019-03-11T00:15:39.646Z,6.20
2019-03-11T00:18:07.565Z,4.40
2019-03-11T00:20:35.119Z,5.83
2019-03-11T00:23:02.669Z,7.47
2019-03-11T00:25:30.255Z,6.90
2019-03-11T00:27:57.714Z,6.17
2019-03-11T00:30:25.255Z,3.00
2019-03-11T00:32:52.872Z,2.13
2019-03-11T00:35:20.403Z,2.33
2019-03-11T00:37:47.935Z,1.87
2019-03-11T00:40:15.807Z,1.93
2019-03-11T00:42:43.304Z,1.87
2019-03-11T00:45:11.154Z,2.00
2019-03-11T00:47:38.624Z,1.47
2019-03-11T00:50:06.934Z,2.70
2019-03-11T00:52:34.678Z,1.80
2019-03-11T00:55:02.636Z,1.63
2019-03-11T00:57:30.142Z,2.00
2019-03-11T00:59:57.688Z,1.47
2019-03-11T01:02:25.198Z,2.00
2019-03-11T01:04:52.711Z,2.13
2019-03-11T01:07:20.298Z,1.90
2019-03-11T01:09:47.854Z,1.80
2019-03-11T01:12:15.464Z,1.57
2019-03-11T01:14:42.967Z,1.83
2019-03-11T01:17:10.485Z,1.73
2019-03-11T01:19:38.082Z,1.57
2019-03-11T01:22:05.611Z,1.83
2019-03-11T01:24:33.267Z,1.50
2019-03-11T01:27:00.843Z,2.10
2019-03-11T01:29:28.619Z,1.50
2019-03-11T01:31:56.242Z,1.40
2019-03-11T01:34:23.853Z,1.53
2019-03-11T01:36:51.477Z,2.30
2019-03-11T01:39:19.138Z,2.17
2019-03-11T01:41:46.756Z,1.50
2019-03-11T01:44:14.306Z,1.57
2019-03-11T01:46:42.832Z,1.93
2019-03-11T01:49:10.373Z,1.37
2019-03-11T01:51:38.056Z,1.23
2019-03-11T01:54:05.714Z,1.83
2019-03-11T01:56:33.678Z,1.50
2019-03-11T01:59:01.609Z,1.43
2019-03-11T02:01:29.102Z,1.50
2019-03-11T02:03:56.603Z,1.60
2019-03-11T02:06:24.225Z,1.20
2019-03-11T02:08:51.811Z,1.23
2019-03-11T02:11:19.375Z,1.63
2019-03-11T02:13:47.906Z,1.20
2019-03-11T02:16:15.441Z,1.27
2019-03-11T02:18:42.969Z,1.50
2019-03-11T02:21:10.534Z,2.40
2019-03-11T02:23:38.133Z,1.77
2019-03-11T02:26:05.695Z,1.20
2019-03-11T02:28:33.158Z,1.43
2019-03-11T02:31:00.717Z,1.93
2019-03-11T02:33:28.385Z,1.83
2019-03-11T02:35:57.901Z,1.83
2019-03-11T02:38:25.496Z,1.80
2019-03-11T02:40:53.083Z,1.47
2019-03-11T02:43:20.654Z,1.43
2019-03-11T02:45:51.993Z,1.37
2019-03-11T02:48:19.691Z,1.43
2019-03-11T02:50:47.330Z,1.80
2019-03-11T02:53:14.925Z,1.40
2019-03-11T02:55:42.576Z,1.80
2019-03-11T02:58:10.499Z,1.90
2019-03-11T03:00:38.140Z,1.60
2019-03-11T03:03:40.415Z,1.90
2019-03-11T03:06:11.516Z,1.90
2019-03-11T03:08:39.008Z,1.63
2019-03-11T03:11:07.030Z,2.10
2019-03-11T03:13:34.643Z,2.10
2019-03-11T03:16:02.354Z,1.50
2019-03-11T03:18:29.961Z,1.90
2019-03-11T03:20:57.582Z,2.33
2019-03-11T03:23:25.164Z,1.80
2019-03-11T03:25:52.681Z,2.50
2019-03-11T03:28:20.242Z,1.80
2019-03-11T03:30:47.876Z,1.90
2019-03-11T03:33:15.397Z,2.03
2019-03-11T03:35:43.017Z,2.00
2019-03-11T03:38:10.566Z,1.97
2019-03-11T03:40:38.302Z,1.90
2019-03-11T03:43:06.490Z,2.33
2019-03-11T03:45:39.025Z,2.23
2019-03-11T03:48:06.617Z,2.17
2019-03-11T03:50:36.138Z,1.80
2019-03-11T03:53:03.609Z,2.00
2019-03-11T03:55:31.085Z,2.00
2019-03-11T03:57:58.721Z,2.03
2019-03-11T04:00:26.393Z,1.93
2019-03-11T04:02:54.038Z,1.67
2019-03-11T04:05:21.624Z,1.77
2019-03-11T04:07:49.116Z,1.70
2019-03-11T04:10:16.956Z,1.30
2019-03-11T04:12:44.618Z,2.07
2019-03-11T04:15:12.340Z,1.80
2019-03-11T04:17:39.864Z,1.57
2019-03-11T04:20:09.668Z,1.60
2019-03-11T04:22:37.771Z,1.80
2019-03-11T04:25:06.037Z,1.80
2019-03-11T04:27:33.757Z,1.90
2019-03-11T04:30:01.878Z,1.80
2019-03-11T04:32:29.688Z,1.70
2019-03-11T04:34:57.232Z,2.00
2019-03-11T04:37:24.825Z,1.80
2019-03-11T04:39:52.416Z,1.70
2019-03-11T04:42:20.017Z,1.50
2019-03-11T04:44:47.590Z,1.77
2019-03-11T04:47:15.553Z,1.40
2019-03-11T04:49:47.198Z,2.10
2019-03-11T04:52:16.744Z,1.67
2019-03-11T05:01:51.566Z,1.80
2019-03-11T05:04:19.594Z,1.60
2019-03-11T05:06:57.493Z,1.47
2019-03-11T05:09:48.977Z,1.80
2019-03-11T05:12:16.817Z,2.00
2019-03-11T05:14:44.610Z,1.63
2019-03-11T05:17:12.225Z,1.30
2019-03-11T05:19:40.360Z,1.40
2019-03-11T05:22:08.039Z,1.97
2019-03-11T05:24:35.698Z,2.20
2019-03-11T05:27:03.754Z,2.20
2019-03-11T05:29:31.475Z,2.03
2019-03-11T05:31:59.140Z,2.17
2019-03-11T05:34:27.441Z,1.80
2019-03-11T05:36:55.135Z,1.70
2019-03-11T05:39:23.064Z,2.20
2019-03-11T05:41:50.802Z,2.00
2019-03-11T05:44:18.755Z,1.93
2019-03-11T05:46:48.259Z,2.00
2019-03-11T05:49:15.893Z,2.13
2019-03-11T05:51:43.655Z,2.20
2019-03-11T05:54:11.132Z,1.83
2019-03-11T05:56:38.497Z,1.37
2019-03-11T05:59:06.059Z,2.13
2019-03-11T06:01:33.538Z,1.70
2019-03-11T06:04:01.000Z,1.60
2019-03-11T06:06:28.498Z,1.87
2019-03-11T06:08:56.116Z,1.60
2019-03-11T06:11:23.674Z,1.53
2019-03-11T06:13:51.146Z,1.57
2019-03-11T06:16:18.579Z,2.53
2019-03-11T06:18:50.143Z,1.93
2019-03-11T06:21:40.414Z,2.10
2019-03-11T06:24:07.895Z,2.13
2019-03-11T06:26:35.351Z,1.70
2019-03-11T06:29:02.832Z,1.80
2019-03-11T06:31:30.489Z,1.97
2019-03-11T06:33:58.897Z,1.97
2019-03-11T06:36:26.361Z,2.10
2019-03-11T06:39:05.027Z,2.30
2019-03-11T06:41:23.291Z,2.00
2019-03-11T06:43:50.788Z,2.43
2019-03-11T06:46:18.227Z,2.23
2019-03-11T06:48:45.722Z,2.33
2019-03-11T06:51:13.189Z,2.67
2019-03-11T06:53:41.766Z,2.17
2019-03-11T06:56:09.282Z,2.33
2019-03-11T06:58:36.713Z,2.70
2019-03-11T07:01:04.147Z,2.60
2019-03-11T07:03:31.722Z,2.80
2019-03-11T07:05:59.318Z,2.90
2019-03-11T07:08:26.968Z,2.40
2019-03-11T07:10:54.493Z,2.60
2019-03-11T07:13:21.947Z,2.43
2019-03-11T07:15:49.427Z,2.37
2019-03-11T07:18:17.058Z,2.27
2019-03-11T07:20:44.571Z,2.30
2019-03-11T07:23:13.027Z,2.17
2019-03-11T07:25:40.518Z,2.10
2019-03-11T07:28:07.977Z,2.10
2019-03-11T07:30:35.514Z,2.90
2019-03-11T07:33:03.060Z,2.60
2019-03-11T07:35:30.591Z,2.50
2019-03-11T07:37:58.207Z,2.13
2019-03-11T07:40:30.174Z,2.57
2019-03-11T07:42:55.120Z,2.40
2019-03-11T07:45:22.661Z,2.57
2019-03-11T07:47:50.144Z,2.30
2019-03-11T07:50:17.761Z,2.37
2019-03-11T07:52:46.330Z,2.37
2019-03-11T07:55:13.929Z,2.30
2019-03-11T07:57:42.578Z,2.10
2019-03-11T08:00:10.162Z,2.03
2019-03-11T08:02:37.723Z,2.20
2019-03-11T08:05:06.011Z,2.20
2019-03-11T08:07:33.527Z,1.40
2019-03-11T08:10:01.273Z,1.77
2019-03-11T08:12:28.686Z,1.80
2019-03-11T08:14:56.202Z,1.47
2019-03-11T08:17:23.639Z,2.47
2019-03-11T08:19:53.088Z,1.73
2019-03-11T08:22:20.584Z,1.90
2019-03-11T08:24:48.119Z,2.37
2019-03-11T08:27:15.591Z,2.10
2019-03-11T08:29:43.132Z,1.60
2019-03-11T08:32:10.636Z,2.27
2019-03-11T08:34:38.092Z,2.40
2019-03-11T08:37:05.604Z,2.73
2019-03-11T08:39:33.068Z,3.03
2019-03-11T08:42:00.590Z,2.80
2019-03-11T08:44:28.040Z,2.10
